sensor_id;sensor_type;location;lat;lon;timestamp;P1;durP1;ratioP1;P2;durP2;ratioP2
29812;SDS011;16707;48.106;11.548;2023-02-01T00:01:31;5.03;;;2.63;;
29812;SDS011;16707;48.106;11.548;2023-02-01T00:03:59;4.57;;;2.38;;
29812;SDS011;16707;48.106;11.548;2023-02-01T00:06:26;4.30;;;2.15;;
29812;SDS011;16707;48.106;11.548;2023-02-01T00:08:52;2.85;;;2.13;;
29812;SDS011;16707;48.106;11.548;2023-02-01T00:11:23;4.10;;;2.70;;
29812;SDS011;16707;48.106;11.548;2023-02-01T00:13:51;6.18;;;2.83;;
29812;SDS011;16707;48.106;11.548;2023-02-01T00:16:19;3.95;;;2.25;;
29812;SDS011;16707;48.106;11.548;2023-02-01T00:18:59;3.95;;;2.63;;
29812;SDS011;16707;48.106;11.548;2023-02-01T00:21:27;4.72;;;2.35;;
29812;SDS011;16707;48.106;11.548;2023-02-01T00:23:58;3.83;;;2.58;;
29812;SDS011;16707;48.106;11.548;2023-02-01T00:26:32;3.05;;;2.30;;
29812;SDS011;16707;48.106;11.548;2023-02-01T00:29:00;3.20;;;2.10;;
29812;SDS011;16707;48.106;11.548;2023-02-01T00:31:29;3.75;;;2.00;;
29812;SDS011;16707;48.106;11.548;2023-02-01T00:34:05;4.35;;;2.42;;
29812;SDS011;16707;48.106;11.548;2023-02-01T00:36:33;3.38;;;2.30;;
29812;SDS011;16707;48.106;11.548;2023-02-01T00:39:02;4.05;;;2.22;;
29812;SDS011;16707;48.106;11.548;2023-02-01T00:41:30;3.17;;;2.00;;
29812;SDS011;16707;48.106;11.548;2023-02-01T00:43:57;3.45;;;2.38;;
29812;SDS011;16707;48.106;11.548;2023-02-01T00:46:30;4.45;;;2.40;;
29812;SDS011;16707;48.106;11.548;2023-02-01T00:48:59;2.80;;;2.03;;
29812;SDS011;16707;48.106;11.548;2023-02-01T00:51:31;3.80;;;1.90;;
29812;SDS011;16707;48.106;11.548;2023-02-01T00:54:01;4.32;;;2.63;;
29812;SDS011;16707;48.106;11.548;2023-02-01T00:56:29;4.78;;;2.25;;
29812;SDS011;16707;48.106;11.548;2023-02-01T00:58:56;3.88;;;2.30;;
29812;SDS011;16707;48.106;11.548;2023-02-01T01:01:28;4.05;;;2.47;;
29812;SDS011;16707;48.106;11.548;2023-02-01T01:03:55;5.63;;;2.88;;
29812;SDS011;16707;48.106;11.548;2023-02-01T01:06:31;6.53;;;2.92;;
29812;SDS011;16707;48.106;11.548;2023-02-01T01:09:02;4.40;;;2.50;;
29812;SDS011;16707;48.106;11.548;2023-02-01T01:11:33;4.05;;;2.80;;
29812;SDS011;16707;48.106;11.548;2023-02-01T01:14:02;4.07;;;2.60;;
29812;SDS011;16707;48.106;11.548;2023-02-01T01:16:35;4.80;;;2.88;;
29812;SDS011;16707;48.106;11.548;2023-02-01T01:19:11;4.88;;;3.45;;
29812;SDS011;16707;48.106;11.548;2023-02-01T01:21:39;6.20;;;3.13;;
29812;SDS011;16707;48.106;11.548;2023-02-01T01:24:12;6.72;;;3.22;;
29812;SDS011;16707;48.106;11.548;2023-02-01T01:26:39;4.60;;;3.22;;
29812;SDS011;16707;48.106;11.548;2023-02-01T01:29:08;6.40;;;3.10;;
29812;SDS011;16707;48.106;11.548;2023-02-01T01:31:36;4.85;;;3.08;;
29812;SDS011;16707;48.106;11.548;2023-02-01T01:34:03;5.20;;;3.70;;
29812;SDS011;16707;48.106;11.548;2023-02-01T01:36:32;4.78;;;2.90;;
29812;SDS011;16707;48.106;11.548;2023-02-01T01:39:00;5.55;;;3.47;;
29812;SDS011;16707;48.106;11.548;2023-02-01T01:41:37;4.60;;;3.42;;
29812;SDS011;16707;48.106;11.548;2023-02-01T01:44:04;5.60;;;3.53;;
29812;SDS011;16707;48.106;11.548;2023-02-01T01:46:49;6.22;;;4.03;;
29812;SDS011;16707;48.106;11.548;2023-02-01T01:49:17;6.13;;;4.20;;
29812;SDS011;16707;48.106;11.548;2023-02-01T01:51:51;6.38;;;3.97;;
29812;SDS011;16707;48.106;11.548;2023-02-01T01:54:22;6.80;;;4.20;;
29812;SDS011;16707;48.106;11.548;2023-02-01T01:57:04;7.15;;;3.78;;
29812;SDS011;16707;48.106;11.548;2023-02-01T01:59:35;7.40;;;4.00;;
29812;SDS011;16707;48.106;11.548;2023-02-01T02:02:06;5.45;;;3.70;;
29812;SDS011;16707;48.106;11.548;2023-02-01T02:04:37;7.82;;;4.72;;
29812;SDS011;16707;48.106;11.548;2023-02-01T02:07:05;6.55;;;3.92;;
29812;SDS011;16707;48.106;11.548;2023-02-01T02:09:38;6.53;;;3.67;;
29812;SDS011;16707;48.106;11.548;2023-02-01T02:12:07;5.95;;;3.67;;
29812;SDS011;16707;48.106;11.548;2023-02-01T02:14:34;7.03;;;4.30;;
29812;SDS011;16707;48.106;11.548;2023-02-01T02:17:05;6.70;;;3.80;;
29812;SDS011;16707;48.106;11.548;2023-02-01T02:19:53;6.60;;;4.47;;
29812;SDS011;16707;48.106;11.548;2023-02-01T02:22:49;6.68;;;3.92;;
29812;SDS011;16707;48.106;11.548;2023-02-01T02:25:56;7.15;;;4.30;;
29812;SDS011;16707;48.106;11.548;2023-02-01T02:29:06;7.53;;;5.00;;
29812;SDS011;16707;48.106;11.548;2023-02-01T02:32:21;5.22;;;3.47;;
29812;SDS011;16707;48.106;11.548;2023-02-01T02:35:26;7.05;;;4.43;;
29812;SDS011;16707;48.106;11.548;2023-02-01T02:38:03;7.13;;;3.90;;
29812;SDS011;16707;48.106;11.548;2023-02-01T02:40:41;6.57;;;4.03;;
29812;SDS011;16707;48.106;11.548;2023-02-01T02:43:18;7.93;;;4.55;;
29812;SDS011;16707;48.106;11.548;2023-02-01T02:46:09;6.10;;;3.92;;
29812;SDS011;16707;48.106;11.548;2023-02-01T02:49:04;6.40;;;4.15;;
29812;SDS011;16707;48.106;11.548;2023-02-01T02:54:26;6.65;;;4.18;;
29812;SDS011;16707;48.106;11.548;2023-02-01T02:57:18;8.07;;;4.05;;
29812;SDS011;16707;48.106;11.548;2023-02-01T03:00:05;8.30;;;4.82;;
29812;SDS011;16707;48.106;11.548;2023-02-01T03:02:53;7.15;;;4.18;;
29812;SDS011;16707;48.106;11.548;2023-02-01T03:05:40;5.88;;;4.03;;
29812;SDS011;16707;48.106;11.548;2023-02-01T03:08:12;5.70;;;4.43;;
29812;SDS011;16707;48.106;11.548;2023-02-01T03:10:52;5.50;;;4.13;;
29812;SDS011;16707;48.106;11.548;2023-02-01T03:13:24;5.82;;;4.15;;
29812;SDS011;16707;48.106;11.548;2023-02-01T03:16:06;5.85;;;4.07;;
29812;SDS011;16707;48.106;11.548;2023-02-01T03:18:40;6.38;;;4.10;;
29812;SDS011;16707;48.106;11.548;2023-02-01T03:21:16;5.47;;;3.80;;
29812;SDS011;16707;48.106;11.548;2023-02-01T03:23:53;6.47;;;4.38;;
29812;SDS011;16707;48.106;11.548;2023-02-01T03:26:24;5.75;;;4.07;;
29812;SDS011;16707;48.106;11.548;2023-02-01T03:28:57;5.82;;;4.00;;
29812;SDS011;16707;48.106;11.548;2023-02-01T03:31:32;6.35;;;3.85;;
29812;SDS011;16707;48.106;11.548;2023-02-01T03:33:59;5.97;;;3.90;;
29812;SDS011;16707;48.106;11.548;2023-02-01T03:36:29;5.85;;;3.63;;
29812;SDS011;16707;48.106;11.548;2023-02-01T03:41:35;7.53;;;4.00;;
29812;SDS011;16707;48.106;11.548;2023-02-01T03:44:16;5.57;;;3.70;;
29812;SDS011;16707;48.106;11.548;2023-02-01T03:46:56;5.47;;;3.33;;
29812;SDS011;16707;48.106;11.548;2023-02-01T03:49:31;4.97;;;3.40;;
29812;SDS011;16707;48.106;11.548;2023-02-01T03:52:03;5.53;;;3.58;;
29812;SDS011;16707;48.106;11.548;2023-02-01T03:54:35;4.90;;;3.47;;
29812;SDS011;16707;48.106;11.548;2023-02-01T03:57:05;5.68;;;3.50;;
29812;SDS011;16707;48.106;11.548;2023-02-01T03:59:38;6.07;;;3.67;;
29812;SDS011;16707;48.106;11.548;2023-02-01T04:02:06;6.45;;;3.17;;
29812;SDS011;16707;48.106;11.548;2023-02-01T04:04:33;6.90;;;3.47;;
29812;SDS011;16707;48.106;11.548;2023-02-01T04:07:00;7.10;;;3.35;;
29812;SDS011;16707;48.106;11.548;2023-02-01T04:09:27;6.53;;;3.40;;
29812;SDS011;16707;48.106;11.548;2023-02-01T04:11:56;8.50;;;3.17;;
29812;SDS011;16707;48.106;11.548;2023-02-01T04:14:23;5.22;;;3.47;;
29812;SDS011;16707;48.106;11.548;2023-02-01T04:16:52;5.88;;;3.22;;
29812;SDS011;16707;48.106;11.548;2023-02-01T04:19:22;4.03;;;2.72;;
29812;SDS011;16707;48.106;11.548;2023-02-01T04:21:49;8.52;;;3.40;;
29812;SDS011;16707;48.106;11.548;2023-02-01T04:24:16;5.85;;;3.20;;
29812;SDS011;16707;48.106;11.548;2023-02-01T04:26:43;4.40;;;3.03;;
29812;SDS011;16707;48.106;11.548;2023-02-01T04:29:12;7.32;;;3.85;;
29812;SDS011;16707;48.106;11.548;2023-02-01T04:31:39;6.15;;;3.55;;
29812;SDS011;16707;48.106;11.548;2023-02-01T04:34:07;6.28;;;3.25;;
29812;SDS011;16707;48.106;11.548;2023-02-01T04:36:39;4.43;;;3.25;;
29812;SDS011;16707;48.106;11.548;2023-02-01T04:39:08;5.35;;;3.47;;
29812;SDS011;16707;48.106;11.548;2023-02-01T04:41:35;4.30;;;3.60;;
29812;SDS011;16707;48.106;11.548;2023-02-01T04:44:02;4.50;;;2.80;;
29812;SDS011;16707;48.106;11.548;2023-02-01T04:46:30;5.68;;;3.47;;
29812;SDS011;16707;48.106;11.548;2023-02-01T04:48:57;4.82;;;2.85;;
29812;SDS011;16707;48.106;11.548;2023-02-01T04:51:24;7.55;;;3.67;;
29812;SDS011;16707;48.106;11.548;2023-02-01T04:53:53;5.90;;;3.25;;
29812;SDS011;16707;48.106;11.548;2023-02-01T04:56:20;4.80;;;3.25;;
29812;SDS011;16707;48.106;11.548;2023-02-01T04:58:48;6.07;;;3.35;;
29812;SDS011;16707;48.106;11.548;2023-02-01T05:01:18;5.00;;;3.58;;
29812;SDS011;16707;48.106;11.548;2023-02-01T05:03:46;4.35;;;2.95;;
29812;SDS011;16707;48.106;11.548;2023-02-01T05:06:16;7.05;;;3.80;;
29812;SDS011;16707;48.106;11.548;2023-02-01T05:08:43;4.60;;;3.22;;
29812;SDS011;16707;48.106;11.548;2023-02-01T05:11:10;6.47;;;3.70;;
29812;SDS011;16707;48.106;11.548;2023-02-01T05:13:53;5.53;;;3.67;;
29812;SDS011;16707;48.106;11.548;2023-02-01T05:16:23;6.22;;;3.88;;
29812;SDS011;16707;48.106;11.548;2023-02-01T05:18:52;6.25;;;3.97;;
29812;SDS011;16707;48.106;11.548;2023-02-01T05:21:21;6.18;;;4.20;;
29812;SDS011;16707;48.106;11.548;2023-02-01T05:23:51;5.70;;;3.92;;
29812;SDS011;16707;48.106;11.548;2023-02-01T05:26:38;9.13;;;3.95;;
29812;SDS011;16707;48.106;11.548;2023-02-01T05:29:07;5.13;;;3.60;;
29812;SDS011;16707;48.106;11.548;2023-02-01T05:31:36;5.65;;;3.85;;
29812;SDS011;16707;48.106;11.548;2023-02-01T05:34:05;6.78;;;3.47;;
29812;SDS011;16707;48.106;11.548;2023-02-01T05:36:34;5.32;;;3.80;;
29812;SDS011;16707;48.106;11.548;2023-02-01T05:39:01;6.88;;;3.70;;
29812;SDS011;16707;48.106;11.548;2023-02-01T05:41:29;5.28;;;3.45;;
29812;SDS011;16707;48.106;11.548;2023-02-01T05:43:56;5.75;;;3.55;;
29812;SDS011;16707;48.106;11.548;2023-02-01T05:46:23;7.05;;;3.75;;
29812;SDS011;16707;48.106;11.548;2023-02-01T05:48:54;7.20;;;4.70;;
29812;SDS011;16707;48.106;11.548;2023-02-01T05:51:22;5.60;;;3.70;;
29812;SDS011;16707;48.106;11.548;2023-02-01T05:53:49;5.57;;;4.15;;
29812;SDS011;16707;48.106;11.548;2023-02-01T05:56:21;5.82;;;3.67;;
29812;SDS011;16707;48.106;11.548;2023-02-01T05:58:49;6.30;;;4.20;;
29812;SDS011;16707;48.106;11.548;2023-02-01T06:01:16;6.78;;;3.65;;
29812;SDS011;16707;48.106;11.548;2023-02-01T06:03:45;8.23;;;4.03;;
29812;SDS011;16707;48.106;11.548;2023-02-01T06:06:13;6.53;;;4.10;;
29812;SDS011;16707;48.106;11.548;2023-02-01T06:08:41;6.35;;;4.15;;
29812;SDS011;16707;48.106;11.548;2023-02-01T06:11:09;6.47;;;3.85;;
29812;SDS011;16707;48.106;11.548;2023-02-01T06:13:39;6.93;;;3.67;;
29812;SDS011;16707;48.106;11.548;2023-02-01T06:16:08;5.53;;;3.92;;
29812;SDS011;16707;48.106;11.548;2023-02-01T06:18:35;5.78;;;3.58;;
29812;SDS011;16707;48.106;11.548;2023-02-01T06:21:08;6.63;;;3.60;;
29812;SDS011;16707;48.106;11.548;2023-02-01T06:23:37;6.45;;;3.72;;
29812;SDS011;16707;48.106;11.548;2023-02-01T06:26:06;6.80;;;3.95;;
29812;SDS011;16707;48.106;11.548;2023-02-01T06:28:33;8.30;;;3.85;;
29812;SDS011;16707;48.106;11.548;2023-02-01T06:31:05;5.88;;;3.75;;
29812;SDS011;16707;48.106;11.548;2023-02-01T06:33:32;6.45;;;3.40;;
29812;SDS011;16707;48.106;11.548;2023-02-01T06:36:00;6.45;;;3.78;;
29812;SDS011;16707;48.106;11.548;2023-02-01T06:38:31;5.78;;;3.80;;
29812;SDS011;16707;48.106;11.548;2023-02-01T06:40:59;4.57;;;3.30;;
29812;SDS011;16707;48.106;11.548;2023-02-01T06:43:28;6.03;;;3.42;;
29812;SDS011;16707;48.106;11.548;2023-02-01T06:45:59;5.30;;;3.80;;
29812;SDS011;16707;48.106;11.548;2023-02-01T06:48:26;6.25;;;3.80;;
29812;SDS011;16707;48.106;11.548;2023-02-01T06:50:53;8.50;;;3.83;;
29812;SDS011;16707;48.106;11.548;2023-02-01T06:53:21;6.40;;;4.22;;
29812;SDS011;16707;48.106;11.548;2023-02-01T06:55:51;6.22;;;3.67;;
29812;SDS011;16707;48.106;11.548;2023-02-01T06:58:19;6.07;;;3.63;;
29812;SDS011;16707;48.106;11.548;2023-02-01T07:00:47;7.03;;;3.65;;
29812;SDS011;16707;48.106;11.548;2023-02-01T07:03:14;5.63;;;3.45;;
29812;SDS011;16707;48.106;11.548;2023-02-01T07:05:41;5.93;;;3.65;;
29812;SDS011;16707;48.106;11.548;2023-02-01T07:08:08;5.80;;;3.45;;
29812;SDS011;16707;48.106;11.548;2023-02-01T07:10:38;5.47;;;3.45;;
29812;SDS011;16707;48.106;11.548;2023-02-01T07:13:05;6.63;;;3.78;;
29812;SDS011;16707;48.106;11.548;2023-02-01T07:15:32;5.28;;;3.00;;
29812;SDS011;16707;48.106;11.548;2023-02-01T07:18:00;4.25;;;2.97;;
29812;SDS011;16707;48.106;11.548;2023-02-01T07:20:27;4.97;;;2.80;;
29812;SDS011;16707;48.106;11.548;2023-02-01T07:22:55;4.05;;;2.97;;
29812;SDS011;16707;48.106;11.548;2023-02-01T07:25:22;4.63;;;2.60;;
29812;SDS011;16707;48.106;11.548;2023-02-01T07:27:50;4.00;;;2.70;;
29812;SDS011;16707;48.106;11.548;2023-02-01T07:30:19;4.85;;;3.03;;
29812;SDS011;16707;48.106;11.548;2023-02-01T07:32:46;6.80;;;3.70;;
29812;SDS011;16707;48.106;11.548;2023-02-01T07:35:14;5.40;;;2.80;;
29812;SDS011;16707;48.106;11.548;2023-02-01T07:37:44;5.28;;;2.63;;
29812;SDS011;16707;48.106;11.548;2023-02-01T07:40:11;5.05;;;2.97;;
29812;SDS011;16707;48.106;11.548;2023-02-01T07:42:39;4.15;;;2.28;;
29812;SDS011;16707;48.106;11.548;2023-02-01T07:45:06;4.15;;;2.70;;
29812;SDS011;16707;48.106;11.548;2023-02-01T07:47:34;2.80;;;2.38;;
29812;SDS011;16707;48.106;11.548;2023-02-01T07:50:01;3.28;;;2.58;;
29812;SDS011;16707;48.106;11.548;2023-02-01T07:52:35;2.88;;;2.30;;
29812;SDS011;16707;48.106;11.548;2023-02-01T07:55:03;3.70;;;2.30;;
29812;SDS011;16707;48.106;11.548;2023-02-01T07:57:33;4.45;;;2.47;;
29812;SDS011;16707;48.106;11.548;2023-02-01T08:00:00;3.28;;;2.28;;
29812;SDS011;16707;48.106;11.548;2023-02-01T08:05:11;3.30;;;2.20;;
29812;SDS011;16707;48.106;11.548;2023-02-01T08:07:40;2.75;;;2.20;;
29812;SDS011;16707;48.106;11.548;2023-02-01T08:10:07;2.72;;;2.00;;
29812;SDS011;16707;48.106;11.548;2023-02-01T08:12:36;2.30;;;2.10;;
29812;SDS011;16707;48.106;11.548;2023-02-01T08:15:03;5.43;;;2.13;;
29812;SDS011;16707;48.106;11.548;2023-02-01T08:17:31;3.45;;;2.40;;
29812;SDS011;16707;48.106;11.548;2023-02-01T08:19:58;3.83;;;1.95;;
29812;SDS011;16707;48.106;11.548;2023-02-01T08:22:25;2.90;;;1.88;;
29812;SDS011;16707;48.106;11.548;2023-02-01T08:24:53;3.72;;;1.90;;
29812;SDS011;16707;48.106;11.548;2023-02-01T08:27:26;4.53;;;2.35;;
29812;SDS011;16707;48.106;11.548;2023-02-01T08:29:53;4.20;;;1.95;;
29812;SDS011;16707;48.106;11.548;2023-02-01T08:32:20;3.75;;;1.90;;
29812;SDS011;16707;48.106;11.548;2023-02-01T08:34:46;3.22;;;1.92;;
29812;SDS011;16707;48.106;11.548;2023-02-01T08:37:13;3.90;;;2.20;;
29812;SDS011;16707;48.106;11.548;2023-02-01T08:39:40;3.30;;;2.17;;
29812;SDS011;16707;48.106;11.548;2023-02-01T08:42:11;3.42;;;1.85;;
29812;SDS011;16707;48.106;11.548;2023-02-01T08:45:07;3.03;;;2.10;;
29812;SDS011;16707;48.106;11.548;2023-02-01T08:47:37;4.32;;;2.05;;
29812;SDS011;16707;48.106;11.548;2023-02-01T08:50:04;3.28;;;1.85;;
29812;SDS011;16707;48.106;11.548;2023-02-01T08:52:31;3.63;;;2.20;;
29812;SDS011;16707;48.106;11.548;2023-02-01T08:54:58;3.03;;;1.77;;
29812;SDS011;16707;48.106;11.548;2023-02-01T08:57:26;3.97;;;2.17;;
29812;SDS011;16707;48.106;11.548;2023-02-01T08:59:54;3.13;;;2.00;;
29812;SDS011;16707;48.106;11.548;2023-02-01T09:02:20;3.40;;;2.00;;
29812;SDS011;16707;48.106;11.548;2023-02-01T09:04:50;2.42;;;2.17;;
29812;SDS011;16707;48.106;11.548;2023-02-01T09:07:17;2.47;;;1.95;;
29812;SDS011;16707;48.106;11.548;2023-02-01T09:09:47;4.53;;;2.50;;
29812;SDS011;16707;48.106;11.548;2023-02-01T09:12:14;3.65;;;2.33;;
29812;SDS011;16707;48.106;11.548;2023-02-01T09:14:42;2.47;;;1.77;;
29812;SDS011;16707;48.106;11.548;2023-02-01T09:17:09;2.45;;;2.00;;
29812;SDS011;16707;48.106;11.548;2023-02-01T09:19:38;3.50;;;2.30;;
29812;SDS011;16707;48.106;11.548;2023-02-01T09:22:05;4.68;;;2.40;;
29812;SDS011;16707;48.106;11.548;2023-02-01T09:24:32;5.82;;;2.55;;
29812;SDS011;16707;48.106;11.548;2023-02-01T09:26:59;3.75;;;2.00;;
29812;SDS011;16707;48.106;11.548;2023-02-01T09:29:26;3.40;;;2.30;;
29812;SDS011;16707;48.106;11.548;2023-02-01T09:31:57;4.53;;;2.55;;
29812;SDS011;16707;48.106;11.548;2023-02-01T09:34:25;6.85;;;2.92;;
29812;SDS011;16707;48.106;11.548;2023-02-01T09:36:52;3.75;;;2.42;;
29812;SDS011;16707;48.106;11.548;2023-02-01T09:39:19;3.70;;;2.50;;
29812;SDS011;16707;48.106;11.548;2023-02-01T09:41:48;5.80;;;3.00;;
29812;SDS011;16707;48.106;11.548;2023-02-01T09:44:37;4.88;;;2.78;;
29812;SDS011;16707;48.106;11.548;2023-02-01T09:47:20;14.25;;;2.35;;
29812;SDS011;16707;48.106;11.548;2023-02-01T09:49:50;3.58;;;2.55;;
29812;SDS011;16707;48.106;11.548;2023-02-01T09:52:23;4.10;;;2.00;;
29812;SDS011;16707;48.106;11.548;2023-02-01T09:54:54;4.65;;;3.00;;
29812;SDS011;16707;48.106;11.548;2023-02-01T09:57:28;7.50;;;3.17;;
29812;SDS011;16707;48.106;11.548;2023-02-01T10:00:09;2.78;;;1.88;;
29812;SDS011;16707;48.106;11.548;2023-02-01T10:02:45;6.15;;;1.90;;
29812;SDS011;16707;48.106;11.548;2023-02-01T10:05:12;5.63;;;2.47;;
29812;SDS011;16707;48.106;11.548;2023-02-01T10:07:47;5.20;;;2.72;;
29812;SDS011;16707;48.106;11.548;2023-02-01T10:10:26;4.65;;;2.95;;
29812;SDS011;16707;48.106;11.548;2023-02-01T10:13:06;5.53;;;2.22;;
29812;SDS011;16707;48.106;11.548;2023-02-01T10:15:52;4.38;;;3.42;;
29812;SDS011;16707;48.106;11.548;2023-02-01T10:18:36;5.88;;;2.67;;
29812;SDS011;16707;48.106;11.548;2023-02-01T10:21:17;2.97;;;2.05;;
29812;SDS011;16707;48.106;11.548;2023-02-01T10:23:59;7.68;;;2.60;;
29812;SDS011;16707;48.106;11.548;2023-02-01T10:26:36;6.15;;;2.70;;
29812;SDS011;16707;48.106;11.548;2023-02-01T10:29:12;8.48;;;4.55;;
29812;SDS011;16707;48.106;11.548;2023-02-01T10:31:44;6.47;;;3.58;;
29812;SDS011;16707;48.106;11.548;2023-02-01T10:34:15;6.30;;;3.53;;
29812;SDS011;16707;48.106;11.548;2023-02-01T10:36:50;4.72;;;2.00;;
29812;SDS011;16707;48.106;11.548;2023-02-01T10:39:20;5.03;;;2.17;;
29812;SDS011;16707;48.106;11.548;2023-02-01T10:41:47;3.38;;;1.95;;
29812;SDS011;16707;48.106;11.548;2023-02-01T10:44:15;3.35;;;2.03;;
29812;SDS011;16707;48.106;11.548;2023-02-01T10:46:44;3.40;;;2.10;;
29812;SDS011;16707;48.106;11.548;2023-02-01T10:49:12;3.72;;;2.08;;
29812;SDS011;16707;48.106;11.548;2023-02-01T10:51:45;3.50;;;2.38;;
29812;SDS011;16707;48.106;11.548;2023-02-01T10:54:15;5.38;;;2.25;;
29812;SDS011;16707;48.106;11.548;2023-02-01T10:56:47;4.25;;;2.47;;
29812;SDS011;16707;48.106;11.548;2023-02-01T10:59:15;4.07;;;2.45;;
29812;SDS011;16707;48.106;11.548;2023-02-01T11:01:44;3.10;;;1.92;;
29812;SDS011;16707;48.106;11.548;2023-02-01T11:04:13;2.83;;;1.90;;
29812;SDS011;16707;48.106;11.548;2023-02-01T11:06:44;3.90;;;2.22;;
29812;SDS011;16707;48.106;11.548;2023-02-01T11:09:16;3.58;;;2.05;;
29812;SDS011;16707;48.106;11.548;2023-02-01T11:11:54;6.72;;;2.90;;
29812;SDS011;16707;48.106;11.548;2023-02-01T11:14:27;3.97;;;2.22;;
29812;SDS011;16707;48.106;11.548;2023-02-01T11:17:15;3.00;;;2.17;;
29812;SDS011;16707;48.106;11.548;2023-02-01T11:19:54;4.22;;;2.38;;
29812;SDS011;16707;48.106;11.548;2023-02-01T11:22:24;4.13;;;2.65;;
29812;SDS011;16707;48.106;11.548;2023-02-01T11:24:53;3.65;;;2.83;;
29812;SDS011;16707;48.106;11.548;2023-02-01T11:27:21;3.95;;;2.40;;
29812;SDS011;16707;48.106;11.548;2023-02-01T11:29:51;3.90;;;2.22;;
29812;SDS011;16707;48.106;11.548;2023-02-01T11:32:24;3.70;;;2.50;;
29812;SDS011;16707;48.106;11.548;2023-02-01T11:34:55;4.78;;;3.08;;
29812;SDS011;16707;48.106;11.548;2023-02-01T11:37:29;4.43;;;2.53;;
29812;SDS011;16707;48.106;11.548;2023-02-01T11:40:02;2.97;;;2.20;;
29812;SDS011;16707;48.106;11.548;2023-02-01T11:42:30;4.72;;;2.45;;
29812;SDS011;16707;48.106;11.548;2023-02-01T11:45:16;6.00;;;2.25;;
29812;SDS011;16707;48.106;11.548;2023-02-01T11:47:46;5.03;;;2.50;;
29812;SDS011;16707;48.106;11.548;2023-02-01T11:50:19;4.60;;;2.78;;
29812;SDS011;16707;48.106;11.548;2023-02-01T11:52:59;5.22;;;3.47;;
29812;SDS011;16707;48.106;11.548;2023-02-01T11:55:54;3.83;;;2.70;;
29812;SDS011;16707;48.106;11.548;2023-02-01T11:58:33;4.35;;;3.13;;
29812;SDS011;16707;48.106;11.548;2023-02-01T12:01:21;4.03;;;2.42;;
29812;SDS011;16707;48.106;11.548;2023-02-01T12:07:11;4.90;;;2.53;;
29812;SDS011;16707;48.106;11.548;2023-02-01T12:09:45;4.20;;;2.45;;
29812;SDS011;16707;48.106;11.548;2023-02-01T12:12:22;3.80;;;2.20;;
29812;SDS011;16707;48.106;11.548;2023-02-01T12:15:08;3.90;;;2.78;;
29812;SDS011;16707;48.106;11.548;2023-02-01T12:21:03;4.70;;;2.75;;
29812;SDS011;16707;48.106;11.548;2023-02-01T12:23:49;4.70;;;2.70;;
29812;SDS011;16707;48.106;11.548;2023-02-01T12:26:38;5.72;;;2.45;;
29812;SDS011;16707;48.106;11.548;2023-02-01T12:29:19;6.85;;;2.75;;
29812;SDS011;16707;48.106;11.548;2023-02-01T12:31:57;6.63;;;2.63;;
29812;SDS011;16707;48.106;11.548;2023-02-01T12:34:52;3.92;;;2.50;;
29812;SDS011;16707;48.106;11.548;2023-02-01T12:37:48;4.30;;;2.80;;
29812;SDS011;16707;48.106;11.548;2023-02-01T12:40:32;4.45;;;2.67;;
29812;SDS011;16707;48.106;11.548;2023-02-01T12:43:09;3.95;;;2.70;;
29812;SDS011;16707;48.106;11.548;2023-02-01T12:45:47;4.18;;;2.30;;
29812;SDS011;16707;48.106;11.548;2023-02-01T12:48:28;3.25;;;2.38;;
29812;SDS011;16707;48.106;11.548;2023-02-01T12:50:59;5.30;;;2.50;;
29812;SDS011;16707;48.106;11.548;2023-02-01T12:53:33;3.47;;;2.47;;
29812;SDS011;16707;48.106;11.548;2023-02-01T12:56:12;3.78;;;2.10;;
29812;SDS011;16707;48.106;11.548;2023-02-01T12:58:42;2.90;;;2.20;;
29812;SDS011;16707;48.106;11.548;2023-02-01T13:01:15;4.07;;;1.88;;
29812;SDS011;16707;48.106;11.548;2023-02-01T13:03:50;3.80;;;2.00;;
29812;SDS011;16707;48.106;11.548;2023-02-01T13:06:23;7.25;;;2.28;;
29812;SDS011;16707;48.106;11.548;2023-02-01T13:08:53;3.08;;;1.80;;
29812;SDS011;16707;48.106;11.548;2023-02-01T13:11:29;4.28;;;2.33;;
29812;SDS011;16707;48.106;11.548;2023-02-01T13:14:00;4.38;;;2.40;;
29812;SDS011;16707;48.106;11.548;2023-02-01T13:16:32;3.15;;;2.47;;
29812;SDS011;16707;48.106;11.548;2023-02-01T13:19:05;3.38;;;2.10;;
29812;SDS011;16707;48.106;11.548;2023-02-01T13:21:38;3.65;;;2.38;;
29812;SDS011;16707;48.106;11.548;2023-02-01T13:24:13;3.35;;;2.17;;
29812;SDS011;16707;48.106;11.548;2023-02-01T13:26:55;3.03;;;2.28;;
29812;SDS011;16707;48.106;11.548;2023-02-01T13:29:22;3.60;;;2.72;;
29812;SDS011;16707;48.106;11.548;2023-02-01T13:34:53;3.05;;;2.20;;
29812;SDS011;16707;48.106;11.548;2023-02-01T13:40:49;5.60;;;2.38;;
29812;SDS011;16707;48.106;11.548;2023-02-01T13:43:32;4.60;;;2.53;;
29812;SDS011;16707;48.106;11.548;2023-02-01T13:46:02;2.55;;;2.10;;
29812;SDS011;16707;48.106;11.548;2023-02-01T13:48:36;2.63;;;2.03;;
29812;SDS011;16707;48.106;11.548;2023-02-01T13:51:06;2.83;;;2.05;;
29812;SDS011;16707;48.106;11.548;2023-02-01T13:53:34;3.05;;;2.03;;
29812;SDS011;16707;48.106;11.548;2023-02-01T13:56:06;4.15;;;2.33;;
29812;SDS011;16707;48.106;11.548;2023-02-01T13:58:40;3.13;;;2.28;;
29812;SDS011;16707;48.106;11.548;2023-02-01T14:04:03;3.97;;;2.00;;
29812;SDS011;16707;48.106;11.548;2023-02-01T14:06:36;3.65;;;2.28;;
29812;SDS011;16707;48.106;11.548;2023-02-01T14:09:11;3.78;;;2.33;;
29812;SDS011;16707;48.106;11.548;2023-02-01T14:23:24;4.03;;;2.28;;
29812;SDS011;16707;48.106;11.548;2023-02-01T14:26:02;5.30;;;2.38;;
29812;SDS011;16707;48.106;11.548;2023-02-01T14:28:40;3.25;;;1.80;;
29812;SDS011;16707;48.106;11.548;2023-02-01T14:34:12;3.38;;;2.20;;
29812;SDS011;16707;48.106;11.548;2023-02-01T14:36:46;3.58;;;2.08;;
29812;SDS011;16707;48.106;11.548;2023-02-01T14:39:20;3.88;;;2.28;;
29812;SDS011;16707;48.106;11.548;2023-02-01T14:42:01;4.18;;;2.10;;
29812;SDS011;16707;48.106;11.548;2023-02-01T14:44:34;6.53;;;2.42;;
29812;SDS011;16707;48.106;11.548;2023-02-01T14:53:14;2.17;;;1.85;;
29812;SDS011;16707;48.106;11.548;2023-02-01T14:55:49;8.35;;;2.47;;
29812;SDS011;16707;48.106;11.548;2023-02-01T14:58:25;3.88;;;2.30;;
29812;SDS011;16707;48.106;11.548;2023-02-01T15:00:59;3.33;;;2.10;;
29812;SDS011;16707;48.106;11.548;2023-02-01T15:03:43;3.25;;;1.63;;
29812;SDS011;16707;48.106;11.548;2023-02-01T15:06:20;4.82;;;2.17;;
29812;SDS011;16707;48.106;11.548;2023-02-01T15:08:57;4.22;;;2.22;;
29812;SDS011;16707;48.106;11.548;2023-02-01T15:11:27;4.47;;;2.00;;
29812;SDS011;16707;48.106;11.548;2023-02-01T15:13:54;3.45;;;2.20;;
29812;SDS011;16707;48.106;11.548;2023-02-01T15:16:22;4.57;;;2.22;;
29812;SDS011;16707;48.106;11.548;2023-02-01T15:18:50;3.83;;;2.05;;
29812;SDS011;16707;48.106;11.548;2023-02-01T15:21:44;6.00;;;1.63;;
29812;SDS011;16707;48.106;11.548;2023-02-01T15:24:14;3.42;;;2.08;;
29812;SDS011;16707;48.106;11.548;2023-02-01T15:26:48;2.15;;;1.60;;
29812;SDS011;16707;48.106;11.548;2023-02-01T15:29:15;4.35;;;1.60;;
29812;SDS011;16707;48.106;11.548;2023-02-01T15:31:44;2.63;;;1.67;;
29812;SDS011;16707;48.106;11.548;2023-02-01T15:34:12;3.03;;;2.20;;
29812;SDS011;16707;48.106;11.548;2023-02-01T15:36:40;3.28;;;2.15;;
29812;SDS011;16707;48.106;11.548;2023-02-01T15:39:17;5.95;;;2.13;;
29812;SDS011;16707;48.106;11.548;2023-02-01T15:41:49;2.47;;;1.90;;
29812;SDS011;16707;48.106;11.548;2023-02-01T15:44:19;2.58;;;2.03;;
29812;SDS011;16707;48.106;11.548;2023-02-01T15:46:55;5.25;;;2.42;;
29812;SDS011;16707;48.106;11.548;2023-02-01T15:49:24;3.33;;;2.40;;